Flight Track Log - Related Links

Times and Time Zones

All times are in EDT time to prevent confusion due to time zone crossing. See the N53NW flight status page for this flight to view local times or setup timezone preferences in your user account.

Time Position Orientation Groundspeed Altitude Reporting Facility
EDT Latitude Longitude Course Direction KTS MPH feet Rate Location/Type
Wed 01:12:37 PM 32.9000 -97.0333 164° South 159 183 1,000  Level Dallas / Fort Worth TRACON
Wed 01:13:20 PM 32.8500 -97.0167 164° South 238 274 2,700 2,778 Climbing Dallas / Fort Worth TRACON
Wed 01:14:25 PM 32.7833 -96.9833 157° South 243 280 6,000 3,024 Climbing Dallas / Fort Worth TRACON
Wed 01:15:25 PM 32.7667 -96.9167 107° East 260 299 9,000 2,000 Climbing Dallas / Fort Worth TRACON
Wed 01:16:25 PM 32.7833 -96.8333 77° East 273 314 10,000 1,105 Climbing Dallas / Fort Worth TRACON
Wed 01:17:19 PM 32.8500 -96.8167 12° North 284 327 11,100 526 Climbing Dallas / Fort Worth TRACON
Wed 01:18:19 PM 32.9333 -96.8000 10° North 298 343 11,000 -48 Descending Dallas / Fort Worth TRACON
Wed 01:19:25 PM 33.0333 -96.8167 352° North 296 341 11,000 50 Level Dallas / Fort Worth TRACON
Wed 01:20:19 PM 33.1000 -96.8500 337° Northwest 296 341 11,100 56 Climbing Dallas / Fort Worth TRACON
Wed 01:21:12 PM 33.1642 -96.8700 345° North 318 366 11,100  Level Fort Worth Center
Wed 01:22:12 PM 33.2456 -96.8967 345° North 303 349 11,100  Level Fort Worth Center
Wed 01:23:12 PM 33.3189 -96.9186 346° North 296 341 11,100  Level Fort Worth Center
Wed 01:24:12 PM 33.4067 -96.9481 344° North 301 346 11,100 -150 Level Fort Worth Center
Wed 01:25:12 PM 33.4775 -96.9503 359° North 296 341 10,800 -1,300 Descending Fort Worth Center
Wed 01:26:12 PM 33.5442 -96.8850 39° Northeast 259 298 8,500 -2,300 Descending Fort Worth Center
Wed 01:27:12 PM 33.5897 -96.8275 46° Northeast 258 297 6,200 -2,300 Descending Fort Worth Center
Wed 01:28:12 PM 33.6478 -96.7697 40° Northeast 259 298 3,900 -1,850 Descending Fort Worth Center
Wed 01:29:12 PM 33.6872 -96.7194 47° Northeast 237 273 2,500 -850 Descending Fort Worth Center
Wed 01:30:12 PM 33.7458 -96.7217 358° North 184 212 2,200 -200 Descending Fort Worth Center
Wed 01:31:12 PM 33.7917 -96.7136 North 175 201 2,100 -100 Descending Fort Worth Center

Login

Don't have an account? Register now (free) for customized features, flight alerts, and more!